Time;durP1;ratioP1;P1;durP2;ratioP2;P2;SDS_P1;SDS_P2;PMS_P1;PMS_P2;Temp;Humidity;BMP_temperature;BMP_pressure;BME280_temperature;BME280_humidity;BME280_pressure;Samples;Min_cycle;Max_cycle;Signal;HPM_P1;HPM_P2
2021/06/13 00:01:11;;;;;;;6.60;3.25;;;15.30;99.90;;;;;;5047365;28;20096;-73
2021/06/13 00:03:37;;;;;;;6.55;2.97;;;15.30;99.90;;;;;;5049174;28;20096;-73
2021/06/13 00:06:04;;;;;;;8.77;3.40;;;15.30;99.90;;;;;;5041073;28;20105;-73
2021/06/13 00:08:29;;;;;;;6.60;2.88;;;15.30;99.90;;;;;;5048741;28;20029;-73
2021/06/13 00:10:56;;;;;;;4.72;2.92;;;15.30;99.90;;;;;;5043043;28;20475;-73
2021/06/13 00:13:22;;;;;;;3.88;3.10;;;15.30;99.90;;;;;;5051840;28;20059;-73
2021/06/13 00:15:48;;;;;;;7.30;3.25;;;15.00;99.90;;;;;;5042067;28;20049;-72
2021/06/13 00:18:14;;;;;;;5.70;3.17;;;15.10;99.90;;;;;;5046407;28;20025;-73
2021/06/13 00:20:39;;;;;;;9.65;3.28;;;15.10;99.90;;;;;;5028546;28;20537;-74
2021/06/13 00:23:05;;;;;;;4.13;3.15;;;15.10;99.90;;;;;;5044173;28;20095;-74
2021/06/13 00:25:30;;;;;;;6.70;3.38;;;15.10;99.90;;;;;;5041862;28;20108;-74
2021/06/13 00:27:56;;;;;;;7.13;3.30;;;15.10;99.90;;;;;;5031515;28;20013;-74
2021/06/13 00:30:22;;;;;;;3.38;2.80;;;15.10;99.90;;;;;;5045109;28;20048;-74
2021/06/13 00:32:48;;;;;;;7.90;3.00;;;15.10;99.90;;;;;;5042800;28;20045;-74
2021/06/13 00:35:15;;;;;;;5.80;3.15;;;15.00;99.90;;;;;;5027220;28;20487;-74
2021/06/13 00:37:41;;;;;;;5.50;2.90;;;14.90;99.90;;;;;;5031811;28;20075;-74
2021/06/13 00:40:08;;;;;;;6.45;3.30;;;14.90;99.90;;;;;;5044454;28;20025;-74
2021/06/13 00:42:35;;;;;;;7.13;3.60;;;14.70;99.90;;;;;;5048613;28;20029;-73
2021/06/13 00:45:00;;;;;;;5.80;3.40;;;14.30;99.90;;;;;;5048102;28;20053;-74
2021/06/13 00:47:26;;;;;;;6.22;3.67;;;14.30;99.90;;;;;;5023820;28;20072;-74
2021/06/13 00:49:54;;;;;;;5.85;3.30;;;14.30;99.90;;;;;;5033928;28;20104;-74
2021/06/13 00:52:19;;;;;;;8.93;3.22;;;14.50;99.90;;;;;;5048078;28;20020;-74
2021/06/13 00:54:45;;;;;;;4.60;3.13;;;14.50;99.90;;;;;;5043749;28;20025;-74
2021/06/13 00:57:11;;;;;;;6.20;3.33;;;14.50;99.90;;;;;;5043929;28;20471;-74
2021/06/13 00:59:36;;;;;;;7.88;2.80;;;14.60;99.90;;;;;;5041522;28;20028;-74
2021/06/13 01:02:02;;;;;;;6.35;3.03;;;14.50;99.90;;;;;;5043558;28;20033;-74
2021/06/13 01:04:28;;;;;;;5.45;3.03;;;14.60;99.90;;;;;;5023675;28;20028;-74
2021/06/13 01:07:26;;;;;;;8.63;3.00;;;14.60;99.90;;;;;;5025029;28;20020;-72
2021/06/13 01:09:57;;;;;;;5.22;2.78;;;14.50;99.90;;;;;;5028745;28;20037;-74
2021/06/13 01:12:27;;;;;;;7.93;2.80;;;14.60;99.90;;;;;;5042950;28;20017;-74
2021/06/13 01:14:58;;;;;;;4.50;2.60;;;14.40;99.90;;;;;;5042461;28;20028;-72
2021/06/13 01:17:29;;;;;;;4.90;3.00;;;14.50;99.90;;;;;;5041487;28;20502;-72
2021/06/13 01:20:22;;;;;;;4.63;2.53;;;14.40;99.90;;;;;;5042782;28;20049;-73
2021/06/13 01:23:07;;;;;;;6.28;2.60;;;14.40;99.90;;;;;;5039850;28;20105;-74
2021/06/13 01:25:42;;;;;;;5.82;3.00;;;14.20;99.90;;;;;;5032573;28;20078;-73
2021/06/13 01:28:43;;;;;;;6.65;3.17;;;14.10;99.90;;;;;;5043297;28;20021;-74
2021/06/13 01:31:09;;;;;;;7.30;2.80;;;14.10;99.90;;;;;;5032078;28;20041;-76
2021/06/13 01:33:36;;;;;;;5.03;2.80;;;13.90;99.90;;;;;;5043078;28;20032;-76
2021/06/13 01:36:03;;;;;;;4.43;2.58;;;14.00;99.90;;;;;;5043162;28;20024;-75
2021/06/13 01:38:30;;;;;;;5.82;2.92;;;14.10;99.90;;;;;;5041487;28;20522;-72
2021/06/13 01:41:01;;;;;;;8.65;3.00;;;13.90;99.90;;;;;;5042532;28;20023;-73
2021/06/13 01:43:28;;;;;;;4.45;3.00;;;13.80;99.90;;;;;;5043409;28;20017;-71
2021/06/13 01:45:54;;;;;;;5.65;3.08;;;13.90;99.90;;;;;;5042364;28;20514;-76
2021/06/13 01:48:21;;;;;;;3.85;2.70;;;13.80;99.90;;;;;;5044738;28;20067;-73
2021/06/13 01:50:48;;;;;;;5.47;2.75;;;13.80;99.90;;;;;;5041237;28;20034;-73
2021/06/13 01:53:16;;;;;;;6.47;2.80;;;13.90;99.90;;;;;;5027766;28;20067;-73
2021/06/13 01:55:45;;;;;;;6.53;3.15;;;14.00;99.90;;;;;;5028478;28;20017;-73
2021/06/13 01:58:14;;;;;;;6.90;3.00;;;13.90;99.90;;;;;;5039493;28;20029;-75
2021/06/13 02:00:40;;;;;;;5.13;2.45;;;13.70;99.90;;;;;;5029672;28;20021;-75
2021/06/13 02:03:08;;;;;;;5.40;2.92;;;13.60;99.90;;;;;;5039484;28;20026;-75
2021/06/13 02:05:35;;;;;;;8.48;3.47;;;13.60;99.90;;;;;;5047554;28;20103;-76
2021/06/13 02:08:00;;;;;;;7.07;3.20;;;13.60;99.90;;;;;;5042255;28;20548;-73
2021/06/13 02:10:28;;;;;;;5.60;3.10;;;13.80;99.90;;;;;;5042448;28;20033;-72
2021/06/13 02:12:55;;;;;;;7.03;2.97;;;13.60;99.90;;;;;;5040668;28;20056;-72
2021/06/13 02:15:24;;;;;;;6.40;3.22;;;13.60;99.90;;;;;;5042554;28;20025;-72
2021/06/13 02:17:51;;;;;;;6.82;2.85;;;13.60;99.90;;;;;;5045861;28;20053;-74
2021/06/13 02:20:28;;;;;;;5.05;3.25;;;13.50;99.90;;;;;;5020883;28;20403;-72
2021/06/13 02:22:55;;;;;;;8.48;3.08;;;13.60;99.90;;;;;;5026298;28;20098;-73
2021/06/13 02:25:22;;;;;;;7.07;3.17;;;13.60;99.90;;;;;;5019850;28;20499;-72
2021/06/13 02:27:52;;;;;;;7.50;3.20;;;13.50;99.90;;;;;;5043439;28;20030;-73
2021/06/13 02:30:20;;;;;;;7.03;3.40;;;13.40;99.90;;;;;;5044353;28;20120;-73
2021/06/13 02:32:46;;;;;;;6.60;3.13;;;13.30;99.90;;;;;;5021772;28;20021;-72
2021/06/13 02:35:12;;;;;;;6.60;3.38;;;13.30;99.90;;;;;;5032363;28;20025;-70
2021/06/13 02:37:41;;;;;;;6.28;2.90;;;13.30;99.90;;;;;;5043301;28;20092;-72
2021/06/13 02:40:08;;;;;;;6.28;3.15;;;13.40;99.90;;;;;;5040755;28;20144;-74
2021/06/13 02:42:34;;;;;;;8.18;3.17;;;13.20;99.90;;;;;;5045539;28;20083;-75
2021/06/13 02:45:00;;;;;;;7.38;3.35;;;13.00;99.90;;;;;;5030095;28;20025;-74
2021/06/13 02:47:26;;;;;;;6.72;3.17;;;13.10;99.90;;;;;;5043247;28;20502;-74
2021/06/13 02:49:51;;;;;;;4.00;2.97;;;13.10;99.90;;;;;;5040771;28;20030;-73
2021/06/13 02:52:23;;;;;;;8.60;3.22;;;13.00;99.90;;;;;;5027683;28;20029;-74
2021/06/13 02:54:51;;;;;;;4.18;3.10;;;13.00;99.90;;;;;;5042665;28;20113;-72
2021/06/13 02:57:40;;;;;;;7.35;3.53;;;13.00;99.90;;;;;;5034326;28;20033;-72
2021/06/13 03:00:09;;;;;;;5.72;3.60;;;13.10;99.90;;;;;;5029842;28;20026;-74
2021/06/13 03:02:36;;;;;;;6.80;3.50;;;13.20;99.90;;;;;;5047395;28;20387;-75
2021/06/13 03:05:04;;;;;;;5.70;3.60;;;13.00;99.90;;;;;;5047131;28;20032;-74
2021/06/13 03:07:30;;;;;;;5.25;2.90;;;13.00;99.90;;;;;;5047313;28;20017;-75
2021/06/13 03:09:58;;;;;;;9.95;3.75;;;12.90;99.90;;;;;;5041048;28;20057;-76
2021/06/13 03:12:24;;;;;;;6.63;3.53;;;12.50;99.90;;;;;;5040662;28;20479;-77
2021/06/13 03:14:52;;;;;;;6.80;3.75;;;12.50;99.90;;;;;;5028369;28;20037;-76
2021/06/13 03:17:19;;;;;;;8.73;3.70;;;12.40;99.90;;;;;;5029353;28;20127;-78
2021/06/13 03:19:47;;;;;;;7.40;3.70;;;12.40;99.90;;;;;;5023805;28;20035;-75
2021/06/13 03:22:13;;;;;;;5.45;3.63;;;12.20;99.90;;;;;;5040177;28;20112;-76
2021/06/13 03:24:42;;;;;;;6.68;3.58;;;12.10;99.90;;;;;;5027786;28;20395;-75
2021/06/13 03:27:09;;;;;;;6.32;3.80;;;12.20;99.90;;;;;;5047215;28;20021;-75
2021/06/13 03:29:41;;;;;;;6.57;3.75;;;12.10;99.90;;;;;;5041857;28;20426;-74
2021/06/13 03:32:11;;;;;;;5.93;3.65;;;12.00;99.90;;;;;;5040345;28;20057;-76
2021/06/13 03:34:39;;;;;;;6.95;3.60;;;12.20;99.90;;;;;;5025570;28;20472;-74
2021/06/13 03:37:06;;;;;;;7.88;3.20;;;12.40;99.90;;;;;;5033518;28;20543;-74
2021/06/13 03:39:33;;;;;;;5.10;3.55;;;12.30;99.90;;;;;;5025713;28;20112;-75
2021/06/13 03:42:00;;;;;;;8.30;3.42;;;12.40;99.90;;;;;;5022247;28;20052;-75
2021/06/13 03:44:27;;;;;;;8.07;3.83;;;12.40;99.90;;;;;;5042511;28;20041;-76
2021/06/13 03:46:55;;;;;;;8.10;3.83;;;12.30;99.90;;;;;;5046345;28;20036;-73
2021/06/13 03:49:21;;;;;;;5.10;3.20;;;12.20;99.90;;;;;;5044158;28;20474;-74
2021/06/13 03:51:47;;;;;;;5.50;3.40;;;12.00;99.90;;;;;;5021894;28;20053;-75
2021/06/13 03:54:13;;;;;;;5.68;3.67;;;12.00;99.90;;;;;;5042097;28;20021;-75
2021/06/13 03:56:56;;;;;;;9.55;3.88;;;12.30;99.90;;;;;;5021750;28;20029;-76
2021/06/13 03:59:26;;;;;;;7.75;3.88;;;12.10;99.90;;;;;;5021798;28;20029;-76
2021/06/13 04:01:53;;;;;;;6.82;3.35;;;12.10;99.90;;;;;;5045169;28;20033;-76
2021/06/13 04:04:19;;;;;;;7.38;3.90;;;12.30;99.90;;;;;;5028543;28;20036;-76
2021/06/13 04:06:47;;;;;;;8.27;3.78;;;12.30;99.90;;;;;;5040962;28;20103;-77
2021/06/13 04:09:14;;;;;;;6.03;3.33;;;12.40;99.90;;;;;;5021326;28;20064;-77
2021/06/13 04:11:41;;;;;;;5.18;3.53;;;12.40;99.90;;;;;;5044702;28;20101;-77
2021/06/13 04:14:09;;;;;;;8.32;3.80;;;12.30;99.90;;;;;;5045894;28;20043;-77
2021/06/13 04:16:35;;;;;;;9.18;3.83;;;12.40;99.90;;;;;;5032816;28;20559;-76
2021/06/13 04:19:02;;;;;;;9.10;4.32;;;12.20;99.90;;;;;;5045729;28;20119;-76
2021/06/13 04:21:28;;;;;;;5.55;3.80;;;12.40;99.90;;;;;;5024773;28;20024;-75
2021/06/13 04:23:56;;;;;;;5.95;3.30;;;12.30;99.90;;;;;;5019643;28;20029;-76
2021/06/13 04:26:23;;;;;;;5.72;3.67;;;12.30;99.90;;;;;;5041550;28;20025;-76
2021/06/13 04:28:49;;;;;;;4.32;3.20;;;12.40;99.90;;;;;;5036491;28;20057;-76
2021/06/13 04:31:16;;;;;;;4.07;3.42;;;12.50;99.90;;;;;;5040981;28;20051;-75
2021/06/13 04:33:45;;;;;;;7.57;3.40;;;12.40;99.90;;;;;;5021135;28;20018;-75
2021/06/13 04:36:11;;;;;;;7.25;3.50;;;12.40;99.90;;;;;;5034378;28;20112;-75
2021/06/13 04:38:38;;;;;;;7.78;3.83;;;12.60;99.90;;;;;;5038862;28;20018;-75
2021/06/13 04:41:06;;;;;;;7.10;3.80;;;12.60;99.90;;;;;;5025109;28;20025;-75
2021/06/13 04:43:33;;;;;;;7.63;3.92;;;12.60;99.90;;;;;;5035054;28;20021;-75
2021/06/13 04:46:00;;;;;;;7.22;4.13;;;12.60;99.90;;;;;;5024661;28;20025;-77
2021/06/13 04:48:25;;;;;;;6.35;3.70;;;12.40;99.90;;;;;;5016956;28;20025;-74
2021/06/13 04:50:52;;;;;;;8.20;4.03;;;12.50;99.90;;;;;;5041475;28;20491;-75
2021/06/13 04:54:02;;;;;;;6.60;4.05;;;12.90;99.90;;;;;;5020732;28;20026;-75
2021/06/13 04:56:43;;;;;;;4.13;3.50;;;13.00;99.90;;;;;;5022752;28;20036;-75
2021/06/13 04:59:09;;;;;;;6.60;3.83;;;13.20;99.90;;;;;;5051191;28;20029;-75
2021/06/13 05:01:35;;;;;;;10.15;3.90;;;13.30;99.90;;;;;;5038458;28;20036;-75
2021/06/13 05:04:02;;;;;;;12.15;4.50;;;13.30;99.90;;;;;;5040290;28;20029;-75
2021/06/13 05:06:27;;;;;;;6.18;3.50;;;13.20;99.90;;;;;;5045266;28;20057;-76
2021/06/13 05:08:53;;;;;;;8.98;3.70;;;13.30;99.90;;;;;;5043491;28;20052;-75
2021/06/13 05:11:19;;;;;;;6.38;3.83;;;13.40;99.90;;;;;;5038314;28;20033;-77
2021/06/13 05:13:44;;;;;;;5.53;3.90;;;13.40;99.90;;;;;;5040139;28;20488;-76
2021/06/13 05:16:10;;;;;;;7.60;4.32;;;13.10;99.90;;;;;;5045352;28;20140;-74
2021/06/13 05:18:36;;;;;;;8.32;3.30;;;13.00;99.90;;;;;;5025212;28;20588;-75
2021/06/13 05:21:02;;;;;;;6.35;4.07;;;13.10;99.90;;;;;;5037988;28;20487;-75
2021/06/13 05:23:29;;;;;;;6.53;3.63;;;13.30;99.90;;;;;;5040635;28;20021;-74
2021/06/13 05:25:55;;;;;;;7.25;4.07;;;13.40;99.90;;;;;;5044958;28;20104;-74
2021/06/13 05:28:22;;;;;;;7.63;3.80;;;13.30;99.90;;;;;;5024957;28;20017;-74
2021/06/13 05:30:49;;;;;;;6.53;3.50;;;13.40;99.90;;;;;;5038091;28;20481;-74
2021/06/13 05:33:14;;;;;;;7.72;3.90;;;13.50;99.90;;;;;;5040179;28;20024;-74
2021/06/13 05:35:41;;;;;;;8.73;4.15;;;13.50;99.90;;;;;;5031478;28;20404;-75
2021/06/13 05:38:08;;;;;;;6.57;4.00;;;13.80;99.90;;;;;;5031522;28;20022;-74
2021/06/13 05:40:35;;;;;;;12.30;4.40;;;13.80;99.90;;;;;;5031331;28;20079;-75
2021/06/13 05:43:01;;;;;;;8.13;4.43;;;13.90;99.90;;;;;;5043649;28;20033;-74
2021/06/13 05:45:28;;;;;;;7.28;4.10;;;13.90;99.90;;;;;;5038090;28;20394;-75
2021/06/13 05:47:54;;;;;;;9.25;4.13;;;14.10;99.90;;;;;;5021074;28;20033;-74
2021/06/13 05:50:21;;;;;;;7.50;3.92;;;13.90;99.90;;;;;;5044751;28;20030;-74
2021/06/13 05:52:46;;;;;;;7.88;3.95;;;13.90;99.90;;;;;;5026312;28;20048;-74
2021/06/13 05:55:13;;;;;;;11.18;4.18;;;14.00;99.90;;;;;;5032163;28;20590;-74
2021/06/13 05:57:39;;;;;;;6.43;3.97;;;14.20;99.90;;;;;;5044302;28;20256;-74
2021/06/13 06:00:22;;;;;;;9.25;3.92;;;14.30;99.90;;;;;;5031702;28;20061;-74
2021/06/13 06:02:48;;;;;;;7.28;3.75;;;14.40;99.90;;;;;;5033087;28;20021;-75
2021/06/13 06:05:15;;;;;;;10.30;3.97;;;14.60;99.90;;;;;;5025048;28;20463;-76
2021/06/13 06:07:41;;;;;;;7.15;3.63;;;14.90;99.90;;;;;;5026759;28;20410;-75
2021/06/13 06:10:09;;;;;;;7.13;3.90;;;15.00;99.90;;;;;;5042298;28;20029;-75
2021/06/13 06:12:36;;;;;;;7.63;4.00;;;14.90;99.90;;;;;;5041550;28;20387;-75
2021/06/13 06:15:03;;;;;;;8.82;4.05;;;15.10;99.90;;;;;;5045896;28;20187;-74
2021/06/13 06:17:29;;;;;;;8.60;3.92;;;14.80;99.90;;;;;;5048348;28;20029;-75
2021/06/13 06:19:54;;;;;;;7.43;3.90;;;15.00;99.90;;;;;;5043174;28;20158;-75
2021/06/13 06:22:20;;;;;;;5.43;4.00;;;14.70;99.90;;;;;;5021476;28;20032;-75
2021/06/13 06:24:45;;;;;;;9.52;4.25;;;14.80;99.90;;;;;;5034897;28;20617;-75
2021/06/13 06:27:11;;;;;;;10.65;4.10;;;14.90;99.90;;;;;;5036775;28;20032;-75
2021/06/13 06:29:37;;;;;;;8.52;4.50;;;15.00;99.90;;;;;;5045969;28;20439;-75
2021/06/13 06:32:03;;;;;;;7.53;3.65;;;15.20;99.90;;;;;;5034644;28;20403;-75
2021/06/13 06:34:28;;;;;;;11.05;4.53;;;15.20;99.90;;;;;;5043107;28;20025;-75
2021/06/13 06:36:54;;;;;;;9.90;4.10;;;15.60;99.90;;;;;;5041552;28;20104;-75
2021/06/13 06:39:19;;;;;;;9.27;4.07;;;15.80;99.90;;;;;;5028064;28;20028;-74
2021/06/13 06:41:45;;;;;;;12.90;4.03;;;15.00;99.90;;;;;;5036157;28;20032;-74
2021/06/13 06:44:11;;;;;;;15.80;4.38;;;15.10;99.90;;;;;;5046059;28;20486;-75
2021/06/13 06:46:38;;;;;;;10.52;4.00;;;15.30;99.90;;;;;;5047737;28;20033;-75
2021/06/13 06:49:04;;;;;;;10.30;3.97;;;15.60;99.90;;;;;;5042330;28;20067;-74
2021/06/13 06:51:30;;;;;;;11.40;3.53;;;15.50;99.90;;;;;;5040796;28;20120;-74
2021/06/13 06:53:57;;;;;;;9.27;3.65;;;15.50;99.90;;;;;;5045981;28;20097;-74
2021/06/13 06:56:24;;;;;;;6.40;3.20;;;15.80;99.90;;;;;;5008108;28;20479;-74
2021/06/13 06:58:50;;;;;;;6.05;3.15;;;15.50;99.90;;;;;;5045326;28;20411;-76
2021/06/13 07:01:16;;;;;;;8.85;3.80;;;15.40;99.90;;;;;;5034754;28;20025;-76
2021/06/13 07:03:42;;;;;;;8.52;3.30;;;15.70;99.90;;;;;;5035095;28;20033;-76
2021/06/13 07:06:08;;;;;;;6.65;3.13;;;16.00;99.90;;;;;;5035807;28;20028;-75
2021/06/13 07:08:33;;;;;;;4.30;3.20;;;16.10;99.90;;;;;;5034470;28;20093;-75
2021/06/13 07:10:59;;;;;;;10.55;3.60;;;15.90;99.90;;;;;;5038634;28;20029;-75
2021/06/13 07:13:24;;;;;;;8.88;3.50;;;15.70;99.90;;;;;;5033819;28;20026;-75
2021/06/13 07:15:50;;;;;;;7.43;3.42;;;16.00;99.90;;;;;;5050223;28;20133;-75
2021/06/13 07:18:15;;;;;;;6.25;3.22;;;16.20;99.90;;;;;;5044581;28;20025;-74
2021/06/13 07:20:41;;;;;;;11.68;3.90;;;16.00;99.90;;;;;;5035528;28;20025;-75
2021/06/13 07:23:07;;;;;;;6.72;3.50;;;16.30;99.90;;;;;;5054063;28;20475;-76
2021/06/13 07:25:33;;;;;;;7.20;3.60;;;16.20;99.90;;;;;;5053557;28;20090;-75
2021/06/13 07:27:59;;;;;;;11.52;3.80;;;16.10;99.90;;;;;;5053587;28;20037;-75
2021/06/13 07:30:24;;;;;;;9.63;4.05;;;15.90;99.90;;;;;;5053251;28;20028;-76
2021/06/13 07:32:50;;;;;;;6.50;3.72;;;15.90;99.90;;;;;;5053494;28;20091;-76
2021/06/13 07:35:18;;;;;;;7.85;3.35;;;15.70;99.90;;;;;;5037582;28;20030;-75
2021/06/13 07:37:44;;;;;;;7.32;3.90;;;15.70;99.90;;;;;;5021693;28;20076;-74
2021/06/13 07:40:11;;;;;;;8.82;3.80;;;15.10;99.90;;;;;;5049374;28;20090;-75
2021/06/13 07:42:36;;;;;;;7.47;3.50;;;14.90;99.90;;;;;;5052703;28;20025;-75
2021/06/13 07:45:03;;;;;;;5.95;3.45;;;15.00;99.90;;;;;;5052175;28;20060;-75
2021/06/13 07:47:30;;;;;;;8.88;3.92;;;15.50;99.90;;;;;;5052323;28;20406;-75
2021/06/13 07:49:56;;;;;;;6.80;3.45;;;16.10;99.90;;;;;;5053005;28;20029;-75
2021/06/13 07:52:22;;;;;;;6.97;3.40;;;16.20;99.90;;;;;;5025850;28;20017;-75
2021/06/13 07:54:47;;;;;;;5.63;3.58;;;16.40;99.90;;;;;;5044979;28;20017;-75
2021/06/13 07:57:13;;;;;;;5.80;3.65;;;15.70;99.90;;;;;;5033375;28;20083;-75
2021/06/13 07:59:39;;;;;;;11.02;3.40;;;16.00;99.90;;;;;;5032881;28;20076;-74
2021/06/13 08:02:05;;;;;;;8.60;3.60;;;16.20;99.90;;;;;;5032801;28;20396;-76
2021/06/13 08:04:35;;;;;;;8.10;3.30;;;16.30;99.90;;;;;;5015381;28;20127;-75
2021/06/13 08:07:02;;;;;;;7.80;3.67;;;16.70;99.90;;;;;;5016086;28;20120;-74
2021/06/13 08:09:27;;;;;;;6.40;3.58;;;16.40;99.90;;;;;;5015317;28;20025;-75
2021/06/13 08:11:52;;;;;;;8.68;3.63;;;16.10;99.90;;;;;;5034042;28;20029;-73
2021/06/13 08:14:18;;;;;;;7.32;3.25;;;16.40;99.90;;;;;;5033184;28;20044;-75
2021/06/13 08:16:44;;;;;;;6.57;3.47;;;17.00;99.90;;;;;;5015233;28;20022;-75
2021/06/13 08:19:10;;;;;;;11.48;3.78;;;17.20;99.90;;;;;;5033297;28;20029;-75
2021/06/13 08:21:35;;;;;;;8.48;3.40;;;16.80;99.90;;;;;;5033899;28;20064;-74
2021/06/13 08:24:02;;;;;;;7.35;3.22;;;16.30;99.90;;;;;;5032486;28;20025;-75
2021/06/13 08:26:28;;;;;;;7.13;3.50;;;16.70;99.90;;;;;;5032538;28;20038;-75
2021/06/13 08:28:54;;;;;;;4.72;3.22;;;17.10;99.90;;;;;;5032489;28;20021;-75
2021/06/13 08:31:22;;;;;;;7.68;3.55;;;16.90;99.90;;;;;;5032416;28;20453;-75
2021/06/13 08:33:48;;;;;;;5.90;3.40;;;17.40;99.90;;;;;;5013879;28;20029;-75
2021/06/13 08:36:14;;;;;;;5.95;3.05;;;17.40;99.90;;;;;;5032838;28;20028;-75
2021/06/13 08:38:40;;;;;;;6.45;3.28;;;17.10;99.90;;;;;;5032834;28;20083;-75
2021/06/13 08:41:06;;;;;;;10.43;3.40;;;16.80;99.90;;;;;;5041738;28;20028;-74
2021/06/13 08:43:33;;;;;;;8.05;3.80;;;17.00;99.90;;;;;;5036663;28;20372;-74
2021/06/13 08:46:03;;;;;;;6.55;3.17;;;16.70;99.90;;;;;;5019842;28;20112;-75
2021/06/13 08:48:30;;;;;;;6.03;3.13;;;17.00;99.90;;;;;;5032070;28;20082;-75
2021/06/13 08:50:57;;;;;;;7.85;2.95;;;16.80;99.90;;;;;;5041488;28;20474;-75
2021/06/13 08:53:23;;;;;;;6.75;3.30;;;16.90;99.90;;;;;;5038972;28;20091;-75
2021/06/13 08:55:49;;;;;;;6.45;3.70;;;16.30;99.90;;;;;;5038853;28;20025;-75
2021/06/13 08:58:16;;;;;;;7.18;3.30;;;16.00;99.90;;;;;;5045107;28;20395;-75
2021/06/13 09:00:41;;;;;;;7.47;3.10;;;16.20;99.90;;;;;;5043156;28;20183;-75
2021/06/13 09:03:07;;;;;;;5.65;2.80;;;16.50;99.90;;;;;;5033992;28;20519;-74
2021/06/13 09:05:34;;;;;;;7.15;3.35;;;16.80;99.90;;;;;;5044624;28;20025;-75
2021/06/13 09:08:05;;;;;;;6.78;3.10;;;17.30;99.90;;;;;;5036285;28;20026;-74
2021/06/13 09:10:32;;;;;;;7.32;2.85;;;17.70;99.90;;;;;;5024433;28;20032;-75
2021/06/13 09:13:19;;;;;;;7.00;3.20;;;17.90;99.90;;;;;;5052569;28;20371;-75
2021/06/13 09:15:51;;;;;;;7.03;3.00;;;18.10;99.90;;;;;;5035331;28;20087;-74
2021/06/13 09:18:39;;;;;;;5.85;2.90;;;17.70;99.90;;;;;;5053621;28;20032;-74
2021/06/13 09:21:26;;;;;;;6.10;3.20;;;17.60;99.90;;;;;;5053386;28;20395;-74
2021/06/13 09:23:52;;;;;;;7.53;3.33;;;17.40;99.90;;;;;;5052703;28;20095;-74
2021/06/13 09:26:19;;;;;;;4.82;2.80;;;17.30;99.90;;;;;;5053336;28;20025;-74
2021/06/13 09:28:47;;;;;;;5.60;3.03;;;17.20;99.90;;;;;;5053003;28;20029;-74
2021/06/13 09:31:21;;;;;;;5.60;2.90;;;17.10;99.90;;;;;;5044388;28;20022;-74
2021/06/13 09:33:49;;;;;;;4.97;3.03;;;16.80;99.90;;;;;;5032850;28;20025;-75
2021/06/13 09:36:23;;;;;;;6.72;2.80;;;16.90;99.90;;;;;;5032795;28;20087;-75
2021/06/13 09:38:53;;;;;;;7.85;2.88;;;17.50;99.90;;;;;;5032591;28;20021;-74
2021/06/13 09:41:22;;;;;;;4.80;2.70;;;18.20;99.90;;;;;;5032447;28;20109;-75
2021/06/13 09:43:49;;;;;;;6.07;3.22;;;18.30;99.90;;;;;;5033164;28;20475;-74
2021/06/13 09:46:19;;;;;;;6.55;3.25;;;18.70;99.90;;;;;;5037139;28;20018;-75
2021/06/13 09:48:47;;;;;;;5.30;2.70;;;18.80;99.90;;;;;;5055437;28;20028;-75
2021/06/13 09:51:15;;;;;;;6.32;2.97;;;18.50;99.90;;;;;;5038855;28;20032;-75
2021/06/13 09:53:46;;;;;;;8.35;3.70;;;18.40;99.90;;;;;;5057089;28;20593;-75
2021/06/13 09:56:21;;;;;;;6.22;3.25;;;18.00;99.90;;;;;;5041628;28;20026;-74
2021/06/13 09:58:52;;;;;;;7.15;3.45;;;17.90;99.90;;;;;;5037184;28;20025;-74
2021/06/13 10:01:19;;;;;;;5.80;3.10;;;18.60;99.90;;;;;;5036954;28;20037;-74
2021/06/13 10:03:48;;;;;;;5.00;2.85;;;18.70;99.90;;;;;;5037327;28;20021;-75
2021/06/13 10:06:15;;;;;;;5.32;2.83;;;18.00;99.90;;;;;;5039891;28;20390;-74
2021/06/13 10:08:44;;;;;;;4.97;3.28;;;18.20;99.90;;;;;;5039232;28;20039;-75
2021/06/13 10:11:11;;;;;;;5.03;2.90;;;18.30;99.90;;;;;;5038993;28;20558;-74
2021/06/13 10:13:47;;;;;;;7.20;3.40;;;18.30;99.90;;;;;;5056573;28;20035;-74
2021/06/13 10:16:22;;;;;;;;;;;18.10;99.90;;;;;;5049446;28;20021;-75
2021/06/13 10:18:58;;;;;;;7.32;3.10;;;18.00;99.90;;;;;;5045353;28;19905;-75
2021/06/13 10:21:30;;;;;;;9.95;3.22;;;17.80;99.90;;;;;;5040615;28;20021;-74
2021/06/13 10:23:57;;;;;;;5.22;3.10;;;18.10;99.90;;;;;;5033167;28;20029;-74
2021/06/13 10:26:23;;;;;;;4.88;2.92;;;18.20;99.90;;;;;;5046972;28;20531;-75
2021/06/13 10:28:49;;;;;;;5.13;2.70;;;18.30;99.90;;;;;;5031615;28;20033;-75
2021/06/13 10:31:15;;;;;;;6.50;3.05;;;18.50;99.90;;;;;;5046144;28;20364;-74
2021/06/13 10:33:41;;;;;;;5.05;2.80;;;19.00;99.90;;;;;;5044150;28;20475;-75
2021/06/13 10:36:07;;;;;;;7.05;3.00;;;19.20;99.90;;;;;;5031635;28;20154;-75
2021/06/13 10:38:35;;;;;;;4.85;3.00;;;18.80;99.90;;;;;;5017036;28;20029;-75
2021/06/13 10:41:00;;;;;;;5.80;3.40;;;18.80;99.90;;;;;;5042672;28;20042;-75
2021/06/13 10:43:30;;;;;;;8.23;3.47;;;18.90;99.90;;;;;;5042676;28;20681;-75
2021/06/13 10:46:09;;;;;;;6.63;2.75;;;18.70;99.90;;;;;;5027578;28;20136;-75
2021/06/13 10:48:37;;;;;;;4.85;2.35;;;18.60;99.90;;;;;;5043815;28;20515;-75
2021/06/13 10:51:27;;;;;;;6.72;2.58;;;18.70;99.90;;;;;;5016931;28;20090;-75
2021/06/13 10:53:53;;;;;;;8.50;3.45;;;18.50;99.90;;;;;;5043836;28;20026;-75
2021/06/13 10:56:25;;;;;;;5.85;3.08;;;19.00;99.90;;;;;;5044268;28;20021;-74
2021/06/13 10:58:56;;;;;;;5.78;2.95;;;19.20;99.90;;;;;;5036300;28;20028;-74
2021/06/13 11:01:25;;;;;;;6.53;3.00;;;19.40;99.90;;;;;;5044967;28;20494;-74
2021/06/13 11:04:04;;;;;;;5.43;2.63;;;19.50;99.90;;;;;;5032589;28;20479;-75
2021/06/13 11:06:38;;;;;;;4.55;2.30;;;19.40;99.90;;;;;;5042277;28;20491;-75
2021/06/13 11:09:06;;;;;;;7.18;4.00;;;19.10;99.90;;;;;;5034397;28;20109;-73
2021/06/13 11:11:40;;;;;;;4.80;3.17;;;19.00;99.90;;;;;;5042283;28;20030;-75
2021/06/13 11:14:29;;;;;;;7.03;3.20;;;19.10;99.90;;;;;;5018984;28;20044;-76
2021/06/13 11:16:58;;;;;;;4.32;2.83;;;19.40;99.90;;;;;;5050278;28;20024;-75
2021/06/13 11:19:37;;;;;;;5.95;3.10;;;19.70;99.90;;;;;;5038602;28;20020;-75
2021/06/13 11:22:18;;;;;;;4.43;2.47;;;19.90;99.90;;;;;;5040113;28;20071;-75
2021/06/13 11:24:51;;;;;;;5.05;3.00;;;19.70;99.90;;;;;;5044638;28;20563;-75
2021/06/13 11:27:17;;;;;;;3.97;2.88;;;19.90;99.90;;;;;;5047086;28;20480;-74
2021/06/13 11:29:57;;;;;;;5.97;3.10;;;19.80;99.90;;;;;;5043297;28;20470;-75
2021/06/13 11:32:47;;;;;;;6.72;2.95;;;20.10;99.90;;;;;;5040050;28;20540;-75
2021/06/13 11:35:31;;;;;;;8.43;3.20;;;20.10;99.90;;;;;;5022185;28;20397;-75
2021/06/13 11:38:12;;;;;;;4.60;2.80;;;20.00;99.90;;;;;;5042666;28;20022;-75
2021/06/13 11:40:48;;;;;;;6.93;2.95;;;20.10;99.90;;;;;;5035087;28;20021;-74
2021/06/13 11:43:14;;;;;;;;;;;20.40;99.90;;;;;;5022604;28;20021;-75
2021/06/13 11:45:55;;;;;;;8.02;3.65;;;20.40;99.90;;;;;;5045530;28;19959;-76
2021/06/13 11:48:23;;;;;;;4.75;2.95;;;20.50;99.90;;;;;;5028917;28;20029;-74
2021/06/13 11:51:19;;;;;;;4.00;2.47;;;20.40;99.90;;;;;;5043257;28;20155;-75
2021/06/13 11:54:04;;;;;;;5.03;2.88;;;20.50;99.90;;;;;;5008318;28;20037;-75
2021/06/13 11:59:13;;;;;;;4.15;2.80;;;21.20;99.90;;;;;;5042050;28;20446;-76
2021/06/13 12:01:40;;;;;;;6.93;2.92;;;20.80;99.90;;;;;;5046432;28;20021;-75
2021/06/13 12:04:10;;;;;;;5.57;2.78;;;20.80;99.90;;;;;;5045686;28;20025;-75
2021/06/13 12:06:37;;;;;;;5.30;2.78;;;20.70;99.90;;;;;;5039608;28;20075;-75
2021/06/13 12:09:15;;;;;;;4.53;2.65;;;20.50;99.90;;;;;;5021558;28;20036;-74
2021/06/13 12:11:55;;;;;;;4.38;2.40;;;20.50;99.90;;;;;;5011759;28;20044;-74
2021/06/13 12:14:34;;;;;;;5.93;3.10;;;20.90;99.90;;;;;;5021562;28;20434;-74
2021/06/13 12:17:01;;;;;;;5.00;2.80;;;21.10;99.90;;;;;;5022898;28;20030;-74
2021/06/13 12:19:51;;;;;;;5.88;2.80;;;21.10;99.90;;;;;;5033022;28;20032;-74
2021/06/13 12:23:01;;;;;;;6.75;2.70;;;20.60;99.90;;;;;;5038375;28;20461;-74
2021/06/13 12:28:06;;;;;;;4.88;2.42;;;21.10;99.90;;;;;;5052749;28;20028;-74
2021/06/13 12:30:33;;;;;;;3.95;2.40;;;21.40;99.90;;;;;;5017466;28;20033;-71
2021/06/13 12:33:05;;;;;;;5.28;2.63;;;21.40;99.90;;;;;;5032302;28;20030;-75
2021/06/13 12:35:35;;;;;;;5.78;2.72;;;22.20;99.90;;;;;;5019026;28;20021;-73
2021/06/13 12:38:06;;;;;;;4.38;2.63;;;22.90;99.90;;;;;;5040608;28;20037;-73
2021/06/13 12:40:35;;;;;;;5.05;2.70;;;22.00;99.90;;;;;;5037935;28;20036;-74
2021/06/13 12:43:01;;;;;;;4.38;3.10;;;22.10;99.90;;;;;;5038837;28;20099;-74
2021/06/13 12:45:27;;;;;;;3.25;2.90;;;22.20;99.90;;;;;;5048384;28;20403;-73
2021/06/13 12:47:58;;;;;;;4.72;2.80;;;22.20;99.90;;;;;;5049351;28;20324;-74
2021/06/13 12:50:33;;;;;;;5.30;2.58;;;22.20;99.90;;;;;;5042644;28;20031;-74
2021/06/13 12:53:00;;;;;;;3.22;2.30;;;22.30;98.90;;;;;;5029574;28;20056;-73
2021/06/13 12:55:34;;;;;;;4.10;2.65;;;22.40;98.90;;;;;;5029657;28;20013;-73
2021/06/13 12:58:01;;;;;;;3.58;2.65;;;22.30;98.10;;;;;;5029802;28;20030;-75
2021/06/13 13:00:28;;;;;;;3.33;2.33;;;22.50;99.30;;;;;;5040757;28;20079;-73
2021/06/13 13:03:13;;;;;;;3.47;2.60;;;22.00;98.60;;;;;;5034627;28;20210;-73